createdAt,value
2022-08-03T00:02:22.543Z,2.78
2022-08-03T00:04:50.438Z,3.15
2022-08-03T00:07:18.166Z,2.95
2022-08-03T00:09:45.892Z,2.75
2022-08-03T00:12:13.834Z,2.80
2022-08-03T00:14:41.780Z,3.00
2022-08-03T00:17:09.675Z,2.33
2022-08-03T00:19:37.394Z,2.77
2022-08-03T00:22:05.142Z,2.60
2022-08-03T00:24:32.867Z,2.30
2022-08-03T00:27:00.583Z,2.55
2022-08-03T00:29:28.483Z,2.85
2022-08-03T00:31:59.350Z,2.85
2022-08-03T00:34:36.681Z,2.92
2022-08-03T00:37:16.464Z,3.00
2022-08-03T00:39:46.390Z,2.70
2022-08-03T00:42:14.409Z,3.20
2022-08-03T00:44:42.856Z,2.90
2022-08-03T00:47:10.886Z,2.63
2022-08-03T00:49:39.225Z,3.10
2022-08-03T00:52:11.832Z,2.95
2022-08-03T00:54:39.638Z,2.55
2022-08-03T00:57:07.643Z,3.10
2022-08-03T00:59:35.426Z,2.50
2022-08-03T01:02:03.123Z,2.80
2022-08-03T01:04:30.923Z,3.03
2022-08-03T01:07:10.914Z,3.28
2022-08-03T01:09:56.989Z,3.27
2022-08-03T01:12:25.379Z,2.80
2022-08-03T01:14:56.493Z,2.63
2022-08-03T01:17:25.441Z,2.95
2022-08-03T01:20:04.315Z,2.58
2022-08-03T01:22:53.108Z,2.47
2022-08-03T01:25:25.991Z,2.70
2022-08-03T01:28:03.758Z,2.50
2022-08-03T01:30:32.469Z,2.53
2022-08-03T01:33:02.154Z,1.98
2022-08-03T01:35:38.278Z,2.13
2022-08-03T01:38:13.515Z,2.40
2022-08-03T01:40:41.486Z,2.40
2022-08-03T01:43:10.031Z,2.35
2022-08-03T01:45:37.889Z,2.08
2022-08-03T01:48:05.658Z,2.15
2022-08-03T01:50:34.509Z,1.90
2022-08-03T01:53:04.507Z,2.40
2022-08-03T01:55:33.410Z,2.30
2022-08-03T01:58:05.741Z,2.45
2022-08-03T02:00:34.573Z,2.17
2022-08-03T02:03:04.569Z,2.25
2022-08-03T02:05:32.490Z,1.95
2022-08-03T02:08:00.201Z,1.98
2022-08-03T02:10:35.479Z,1.80
2022-08-03T02:13:04.381Z,1.77
2022-08-03T02:15:32.036Z,2.03
2022-08-03T02:17:59.783Z,1.57
2022-08-03T02:20:27.678Z,1.70
2022-08-03T02:22:55.530Z,1.70
2022-08-03T02:25:23.706Z,2.33
2022-08-03T02:27:56.476Z,1.90
2022-08-03T02:30:24.654Z,1.80
2022-08-03T02:32:55.875Z,1.50
2022-08-03T02:35:23.989Z,1.92
2022-08-03T02:37:53.759Z,2.03
2022-08-03T02:40:21.527Z,1.75
2022-08-03T02:42:50.486Z,2.00
2022-08-03T02:45:18.237Z,2.10
2022-08-03T02:47:54.320Z,2.53
2022-08-03T02:50:22.996Z,1.60
2022-08-03T02:52:50.771Z,2.00
2022-08-03T02:55:18.647Z,1.80
2022-08-03T02:57:46.322Z,2.15
2022-08-03T03:00:19.377Z,1.63
2022-08-03T03:02:55.953Z,1.80
2022-08-03T03:05:52.534Z,2.00
2022-08-03T03:08:17.677Z,1.67
2022-08-03T03:10:46.812Z,2.08
2022-08-03T03:13:15.959Z,2.17
2022-08-03T03:15:44.500Z,3.10
2022-08-03T03:18:12.268Z,2.15
2022-08-03T03:20:41.106Z,1.90
2022-08-03T03:23:09.524Z,2.00
2022-08-03T03:25:37.248Z,1.75
2022-08-03T03:28:06.268Z,1.83
2022-08-03T03:30:34.263Z,2.20
2022-08-03T03:33:02.986Z,2.53
2022-08-03T03:35:30.676Z,1.70
2022-08-03T03:38:06.533Z,1.70
2022-08-03T03:40:34.279Z,1.83
2022-08-03T03:43:02.010Z,1.80
2022-08-03T03:45:29.724Z,1.90
2022-08-03T03:47:57.496Z,1.60
2022-08-03T03:50:25.274Z,2.53
2022-08-03T03:52:53.135Z,1.80
2022-08-03T03:55:20.888Z,1.80
2022-08-03T03:57:48.559Z,1.80
2022-08-03T04:00:16.875Z,2.13
2022-08-03T04:02:44.887Z,1.80
2022-08-03T04:05:31.315Z,2.00
2022-08-03T04:08:18.304Z,1.83
2022-08-03T04:11:00.076Z,1.90
2022-08-03T04:13:33.283Z,2.00
2022-08-03T04:16:01.019Z,1.80
2022-08-03T04:18:29.725Z,1.77
2022-08-03T04:20:58.139Z,2.28
2022-08-03T04:23:26.391Z,2.40
2022-08-03T04:25:54.179Z,1.70
2022-08-03T04:28:30.707Z,2.10
2022-08-03T04:31:02.572Z,2.00
2022-08-03T04:33:30.944Z,1.80
2022-08-03T04:36:03.776Z,2.47
2022-08-03T04:38:36.634Z,1.85
2022-08-03T04:41:04.390Z,2.25
2022-08-03T04:43:32.838Z,2.10
2022-08-03T04:46:00.603Z,2.20
2022-08-03T04:48:30.903Z,2.30
2022-08-03T04:50:58.642Z,2.55
2022-08-03T04:53:26.423Z,2.30
2022-08-03T04:55:54.141Z,2.27
2022-08-03T04:58:21.922Z,2.55
2022-08-03T05:00:51.482Z,1.90
2022-08-03T05:03:24.231Z,1.90
2022-08-03T05:05:53.302Z,2.30
2022-08-03T05:08:30.244Z,2.10
2022-08-03T05:10:59.598Z,2.03
2022-08-03T05:13:27.417Z,1.83
2022-08-03T05:15:55.199Z,2.45
2022-08-03T05:18:22.964Z,2.33
2022-08-03T05:20:50.696Z,2.20
2022-08-03T05:23:18.446Z,2.25
2022-08-03T05:25:50.099Z,2.08
2022-08-03T05:28:18.111Z,2.20
2022-08-03T05:30:46.503Z,1.92
2022-08-03T05:33:14.203Z,2.28
2022-08-03T05:36:00.903Z,2.58
2022-08-03T05:38:35.014Z,2.23
2022-08-03T05:41:21.155Z,2.28
2022-08-03T05:43:52.254Z,2.30
2022-08-03T05:46:20.948Z,2.10
2022-08-03T05:48:48.692Z,2.85
2022-08-03T05:51:16.406Z,2.75
2022-08-03T05:53:44.229Z,2.88
2022-08-03T05:56:14.103Z,2.33
2022-08-03T05:58:43.928Z,2.47
2022-08-03T06:01:12.378Z,2.60
2022-08-03T06:03:40.217Z,2.20
2022-08-03T06:06:08.020Z,2.30
2022-08-03T06:08:35.946Z,2.10
2022-08-03T06:11:03.995Z,2.60
2022-08-03T06:13:32.358Z,2.30
2022-08-03T06:16:00.107Z,2.10
2022-08-03T06:18:27.756Z,2.25
2022-08-03T06:20:55.611Z,2.38
2022-08-03T06:23:25.310Z,2.15
2022-08-03T06:26:13.320Z,2.42
2022-08-03T06:28:52.235Z,2.27
2022-08-03T06:31:22.962Z,2.42
2022-08-03T06:34:33.305Z,2.20
2022-08-03T06:36:38.733Z,2.67
2022-08-03T06:39:06.491Z,2.20
2022-08-03T06:41:37.511Z,2.60
2022-08-03T06:44:06.236Z,2.70
2022-08-03T06:46:34.034Z,2.20
2022-08-03T06:49:01.815Z,2.17
2022-08-03T06:52:03.463Z,2.40
2022-08-03T06:54:17.908Z,3.13
2022-08-03T06:56:45.660Z,2.38
2022-08-03T07:00:09.450Z,2.58
2022-08-03T07:02:01.092Z,2.50
2022-08-03T07:04:28.806Z,2.33
2022-08-03T07:06:56.502Z,2.90
2022-08-03T07:09:24.579Z,2.28
2022-08-03T07:11:52.293Z,3.22
2022-08-03T07:14:20.173Z,2.83
2022-08-03T07:16:47.939Z,2.65
2022-08-03T07:19:15.612Z,2.60
2022-08-03T07:21:43.369Z,2.80
2022-08-03T07:24:11.075Z,2.42
2022-08-03T07:26:38.860Z,2.47
2022-08-03T07:29:11.749Z,2.20
2022-08-03T07:31:43.278Z,2.65
2022-08-03T07:34:11.100Z,3.00
2022-08-03T07:36:38.781Z,2.63
2022-08-03T07:39:15.834Z,2.80
2022-08-03T07:41:46.178Z,2.38
2022-08-03T07:44:13.922Z,2.53
2022-08-03T07:46:41.594Z,2.60
2022-08-03T07:49:09.373Z,3.22
2022-08-03T07:51:37.262Z,3.27
2022-08-03T07:54:05.206Z,2.83
2022-08-03T07:56:32.946Z,2.85
2022-08-03T07:59:00.731Z,2.65
2022-08-03T08:01:29.954Z,3.20
2022-08-03T08:03:57.737Z,2.78
2022-08-03T08:06:25.455Z,2.60
2022-08-03T08:08:55.301Z,2.57
2022-08-03T08:11:23.274Z,2.72
2022-08-03T08:13:50.989Z,3.47
2022-08-03T08:16:18.734Z,2.63
2022-08-03T08:18:46.394Z,2.92
2022-08-03T08:21:14.155Z,3.00
2022-08-03T08:23:44.310Z,2.97
2022-08-03T08:26:14.089Z,2.70
2022-08-03T08:28:41.838Z,3.47
2022-08-03T08:31:09.509Z,2.63
2022-08-03T08:34:02.624Z,2.80
2022-08-03T08:36:24.914Z,3.80
2022-08-03T08:38:52.732Z,2.90
2022-08-03T08:41:20.422Z,3.07
2022-08-03T08:43:48.193Z,3.15
2022-08-03T08:46:23.118Z,3.10
2022-08-03T08:48:51.594Z,3.40
2022-08-03T08:51:20.318Z,2.83
2022-08-03T08:53:49.532Z,3.90
2022-08-03T08:56:17.384Z,3.50
2022-08-03T08:58:46.182Z,3.10
2022-08-03T09:01:14.282Z,3.30
2022-08-03T09:03:42.101Z,3.50
2022-08-03T09:06:09.897Z,3.20
2022-08-03T09:08:37.592Z,3.60
2022-08-03T09:11:05.513Z,4.25
2022-08-03T09:13:34.125Z,3.58
2022-08-03T09:16:18.294Z,3.55
2022-08-03T09:18:53.296Z,3.95
2022-08-03T09:21:36.280Z,4.40
2022-08-03T09:24:06.174Z,3.40
2022-08-03T09:26:35.729Z,3.90
2022-08-03T09:29:08.170Z,4.38
2022-08-03T09:31:43.234Z,3.70
2022-08-03T09:34:18.062Z,4.20
2022-08-03T09:36:49.140Z,3.40
2022-08-03T09:39:41.486Z,4.28
2022-08-03T09:42:08.199Z,4.13
2022-08-03T09:44:56.205Z,4.00
2022-08-03T09:47:30.362Z,4.18
2022-08-03T09:50:07.676Z,4.30
2022-08-03T09:52:49.799Z,4.30
2022-08-03T09:56:33.652Z,3.92
2022-08-03T09:58:14.459Z,3.67
2022-08-03T10:01:01.242Z,3.92
2022-08-03T10:03:30.151Z,3.88
2022-08-03T10:06:00.072Z,3.85
2022-08-03T10:08:27.986Z,3.30
2022-08-03T10:10:58.072Z,3.72
2022-08-03T10:13:25.799Z,3.50
2022-08-03T10:16:21.353Z,4.53
2022-08-03T10:18:41.327Z,4.38
2022-08-03T10:21:09.464Z,4.55
2022-08-03T10:23:37.760Z,4.53
2022-08-03T10:26:05.750Z,4.22
2022-08-03T10:28:38.373Z,4.25
2022-08-03T10:31:09.342Z,4.15
2022-08-03T10:33:51.490Z,4.38
2022-08-03T10:36:20.496Z,4.95
2022-08-03T10:38:52.877Z,5.28
2022-08-03T10:41:21.689Z,4.60
2022-08-03T10:44:00.344Z,4.72
2022-08-03T10:46:28.060Z,5.13
2022-08-03T10:48:56.828Z,4.87
2022-08-03T10:51:24.695Z,4.65
2022-08-03T10:53:54.597Z,5.15
2022-08-03T10:56:54.649Z,4.88
2022-08-03T10:59:41.112Z,4.43
2022-08-03T11:02:10.176Z,4.40
2022-08-03T11:04:37.845Z,5.10
2022-08-03T11:07:18.091Z,4.70
2022-08-03T11:09:48.618Z,4.72
2022-08-03T11:12:39.279Z,4.35
2022-08-03T11:15:07.708Z,4.10
2022-08-03T11:17:46.846Z,5.43
2022-08-03T11:20:41.965Z,4.63
2022-08-03T11:23:09.795Z,5.05
2022-08-03T11:25:56.240Z,4.67
2022-08-03T11:28:30.687Z,4.53
2022-08-03T11:30:58.562Z,4.70
2022-08-03T11:33:32.471Z,4.80
2022-08-03T11:36:00.965Z,4.88
2022-08-03T11:38:28.685Z,4.75
2022-08-03T11:40:56.477Z,4.80
2022-08-03T11:43:26.731Z,4.90
2022-08-03T11:46:03.470Z,6.07
2022-08-03T11:48:37.599Z,5.63
2022-08-03T11:51:06.535Z,6.10
2022-08-03T11:53:42.159Z,5.90
2022-08-03T11:56:12.747Z,4.90
2022-08-03T11:59:00.756Z,4.83
2022-08-03T12:01:35.486Z,5.50
2022-08-03T12:04:06.236Z,5.32
2022-08-03T12:06:52.883Z,5.70
2022-08-03T12:09:21.159Z,5.47
2022-08-03T12:11:51.630Z,5.40
2022-08-03T12:14:49.466Z,4.93
2022-08-03T12:17:15.388Z,4.63
2022-08-03T12:19:43.551Z,4.72
2022-08-03T12:22:11.286Z,5.43
2022-08-03T12:24:46.754Z,5.27
2022-08-03T12:27:23.519Z,6.63
2022-08-03T12:29:57.267Z,5.95
2022-08-03T12:32:26.994Z,5.80
2022-08-03T12:35:00.123Z,5.18
2022-08-03T12:37:28.299Z,5.68
2022-08-03T12:40:10.109Z,6.47
2022-08-03T12:42:39.857Z,6.00
2022-08-03T12:45:20.810Z,5.65
2022-08-03T12:47:55.147Z,6.20
2022-08-03T12:50:35.758Z,6.23
2022-08-03T12:53:04.813Z,6.28
2022-08-03T12:56:04.271Z,6.07
2022-08-03T12:58:33.950Z,5.67
2022-08-03T13:01:05.139Z,5.60
2022-08-03T13:03:45.707Z,5.20
2022-08-03T13:06:19.073Z,5.45
2022-08-03T13:08:48.590Z,5.50
2022-08-03T13:11:22.922Z,5.28
2022-08-03T13:14:13.553Z,5.15
2022-08-03T13:16:47.582Z,4.83
2022-08-03T13:19:16.191Z,4.85
2022-08-03T13:22:01.824Z,4.90
2022-08-03T13:24:32.541Z,4.97
2022-08-03T13:27:00.708Z,5.15
2022-08-03T13:29:48.600Z,5.47
2022-08-03T13:32:16.331Z,5.25
2022-08-03T13:34:44.195Z,4.90
2022-08-03T13:37:12.366Z,4.25
2022-08-03T13:39:57.381Z,4.20
2022-08-03T13:42:28.118Z,4.30
2022-08-03T13:44:56.107Z,4.78
2022-08-03T13:47:23.879Z,4.40
2022-08-03T13:49:59.815Z,4.03
2022-08-03T13:52:33.635Z,3.95
2022-08-03T13:55:01.592Z,4.72
2022-08-03T13:58:04.908Z,4.07
2022-08-03T14:00:26.608Z,4.13
2022-08-03T14:03:13.726Z,4.22
2022-08-03T14:05:42.965Z,3.17
2022-08-03T14:08:10.725Z,3.70
2022-08-03T14:10:39.105Z,4.28
2022-08-03T14:13:06.795Z,4.20
2022-08-03T14:15:37.313Z,3.33
2022-08-03T14:18:06.952Z,3.42
2022-08-03T14:20:38.555Z,3.72
2022-08-03T14:23:16.699Z,3.85
2022-08-03T14:25:51.843Z,3.93
2022-08-03T14:28:24.106Z,3.90
2022-08-03T14:30:54.897Z,3.95
2022-08-03T14:33:22.832Z,4.30
2022-08-03T14:35:50.610Z,5.05
2022-08-03T14:38:18.611Z,3.97
2022-08-03T14:40:47.153Z,4.30
2022-08-03T14:43:15.120Z,4.88
2022-08-03T14:45:42.957Z,5.25
2022-08-03T14:50:29.666Z,4.10
2022-08-03T14:51:00.230Z,4.47
2022-08-03T14:53:29.038Z,4.10
2022-08-03T14:55:56.766Z,4.85
2022-08-03T14:58:25.547Z,3.87
2022-08-03T15:00:53.828Z,4.57
2022-08-03T15:03:23.872Z,4.68
2022-08-03T15:05:55.525Z,3.90
2022-08-03T15:08:23.524Z,3.72
2022-08-03T15:10:51.323Z,3.97
2022-08-03T15:13:19.748Z,4.93
2022-08-03T15:15:47.878Z,4.23
2022-08-03T15:18:15.695Z,4.82
2022-08-03T15:20:45.543Z,3.88
2022-08-03T15:23:14.568Z,4.10
2022-08-03T15:26:28.329Z,5.70
2022-08-03T15:28:30.713Z,7.00
2022-08-03T15:30:58.515Z,4.40
2022-08-03T15:33:26.226Z,4.93
2022-08-03T15:35:54.073Z,4.40
2022-08-03T15:38:26.249Z,4.30
2022-08-03T15:40:54.836Z,4.17
2022-08-03T15:43:23.209Z,4.18
2022-08-03T15:46:19.139Z,4.65
2022-08-03T15:48:38.785Z,4.13
2022-08-03T15:51:06.549Z,4.03
2022-08-03T15:53:34.302Z,5.18
2022-08-03T15:56:05.229Z,4.37
2022-08-03T15:58:59.634Z,3.90
2022-08-03T16:01:25.701Z,4.40
2022-08-03T16:03:56.496Z,8.68
2022-08-03T16:06:34.789Z,3.83
2022-08-03T16:09:23.776Z,3.90
2022-08-03T16:11:54.820Z,4.85
2022-08-03T16:14:32.181Z,4.60
2022-08-03T16:17:04.416Z,4.90
2022-08-03T16:19:32.221Z,4.47
2022-08-03T16:22:00.146Z,4.60
2022-08-03T16:24:28.708Z,4.40
2022-08-03T16:26:57.502Z,4.32
2022-08-03T16:29:25.344Z,3.95
2022-08-03T16:31:53.352Z,4.68
2022-08-03T16:34:21.369Z,4.63
2022-08-03T16:36:49.197Z,5.53
2022-08-03T16:39:16.951Z,4.63
2022-08-03T16:41:53.976Z,4.43
2022-08-03T16:44:31.648Z,4.10
2022-08-03T16:47:02.931Z,3.57
2022-08-03T16:49:53.788Z,4.53
2022-08-03T16:52:18.397Z,3.95
2022-08-03T16:54:52.868Z,3.30
2022-08-03T16:57:56.688Z,4.07
2022-08-03T17:00:10.512Z,3.47
2022-08-03T17:02:38.346Z,3.72
2022-08-03T17:05:06.238Z,3.80
2022-08-03T17:07:40.976Z,3.85
2022-08-03T17:10:09.255Z,3.20
2022-08-03T17:12:37.015Z,3.83
2022-08-03T17:15:10.671Z,3.58
2022-08-03T17:17:53.509Z,3.28
2022-08-03T17:20:29.881Z,3.75
2022-08-03T17:23:04.063Z,3.88
2022-08-03T17:25:39.829Z,3.60
2022-08-03T17:28:43.100Z,3.92
2022-08-03T17:31:23.050Z,3.90
2022-08-03T17:34:00.509Z,3.88
2022-08-03T17:36:47.721Z,4.63
2022-08-03T17:39:16.887Z,4.00
2022-08-03T17:41:49.953Z,4.00
2022-08-03T17:44:35.229Z,4.00
2022-08-03T17:47:06.567Z,3.65
2022-08-03T17:49:39.769Z,3.10
2022-08-03T17:52:28.016Z,3.72
2022-08-03T17:55:58.553Z,4.47
2022-08-03T17:58:01.411Z,3.90
2022-08-03T18:00:52.974Z,3.67
2022-08-03T18:03:21.023Z,3.67
2022-08-03T18:06:11.136Z,3.73
2022-08-03T18:08:47.394Z,3.92
2022-08-03T18:11:22.386Z,3.70
2022-08-03T18:14:02.426Z,3.80
2022-08-03T18:16:34.750Z,4.25
2022-08-03T18:19:09.495Z,4.95
2022-08-03T18:22:03.614Z,4.13
2022-08-03T18:24:28.354Z,5.30
2022-08-03T18:26:57.789Z,5.03
2022-08-03T18:29:25.517Z,4.65
2022-08-03T18:32:03.393Z,4.33
2022-08-03T18:34:33.810Z,4.38
2022-08-03T18:37:07.395Z,4.28
2022-08-03T18:39:49.453Z,4.88
2022-08-03T18:42:25.961Z,4.63
2022-08-03T18:44:58.200Z,3.95
2022-08-03T18:47:50.531Z,4.40
2022-08-03T18:50:31.489Z,4.50
2022-08-03T18:53:20.025Z,4.78
2022-08-03T18:56:04.289Z,3.97
2022-08-03T18:58:35.940Z,4.03
2022-08-03T19:01:15.243Z,3.95
2022-08-03T19:03:59.362Z,3.92
2022-08-03T19:06:27.747Z,3.65
2022-08-03T19:08:56.346Z,3.60
2022-08-03T19:11:29.092Z,3.60
2022-08-03T19:14:17.731Z,4.18
2022-08-03T19:16:47.231Z,4.27
2022-08-03T19:19:15.714Z,4.47
2022-08-03T19:21:44.488Z,4.90
2022-08-03T19:24:13.170Z,4.10
2022-08-03T19:26:41.853Z,4.50
2022-08-03T19:29:14.701Z,4.40
2022-08-03T19:31:58.942Z,4.53
2022-08-03T19:34:28.906Z,4.93
2022-08-03T19:36:58.575Z,4.57
2022-08-03T19:39:26.653Z,4.70
2022-08-03T19:41:55.860Z,4.90
2022-08-03T19:44:33.038Z,4.97
2022-08-03T19:47:11.799Z,4.72
2022-08-03T19:49:57.114Z,6.00
2022-08-03T19:52:35.637Z,5.50
2022-08-03T19:55:13.667Z,5.15
2022-08-03T19:57:41.855Z,6.05
2022-08-03T20:00:13.895Z,5.28
2022-08-03T20:02:41.968Z,5.90
2022-08-03T20:05:15.005Z,5.97
2022-08-03T20:07:47.667Z,5.60
2022-08-03T20:10:16.136Z,6.32
2022-08-03T20:12:44.337Z,6.43
2022-08-03T20:15:12.190Z,6.20
2022-08-03T20:17:56.266Z,6.80
2022-08-03T20:20:31.062Z,6.13
2022-08-03T20:22:59.488Z,6.22
2022-08-03T20:25:38.754Z,6.40
2022-08-03T20:28:17.057Z,6.00
2022-08-03T20:30:47.502Z,5.60
2022-08-03T20:33:18.794Z,6.40
2022-08-03T20:35:48.865Z,6.32
2022-08-03T20:38:17.863Z,6.68
2022-08-03T20:40:47.017Z,7.10
2022-08-03T20:43:15.138Z,6.78
2022-08-03T20:46:00.322Z,7.15
2022-08-03T20:48:30.741Z,7.05
2022-08-03T20:50:58.478Z,6.70
2022-08-03T20:53:57.320Z,6.68
2022-08-03T20:56:14.460Z,6.82
2022-08-03T20:58:43.079Z,7.53
2022-08-03T21:01:27.906Z,7.20
2022-08-03T21:04:07.417Z,7.35
2022-08-03T21:06:39.799Z,6.60
2022-08-03T21:09:07.899Z,7.47
2022-08-03T21:11:42.139Z,7.30
2022-08-03T21:14:12.999Z,6.88
2022-08-03T21:16:40.858Z,6.85
2022-08-03T21:19:08.614Z,7.40
2022-08-03T21:21:36.313Z,7.05
2022-08-03T21:24:04.139Z,8.20
2022-08-03T21:26:33.288Z,7.75
2022-08-03T21:29:02.488Z,7.03
2022-08-03T21:31:30.327Z,6.83
2022-08-03T21:33:58.540Z,6.15
2022-08-03T21:36:31.455Z,6.90
2022-08-03T21:38:59.404Z,6.40
2022-08-03T21:41:31.348Z,6.68
2022-08-03T21:43:59.486Z,5.95
2022-08-03T21:46:27.630Z,6.30
2022-08-03T21:48:56.457Z,6.57
2022-08-03T21:51:44.276Z,6.28
2022-08-03T21:54:12.239Z,6.80
2022-08-03T21:56:43.223Z,6.70
2022-08-03T21:59:15.774Z,6.40
2022-08-03T22:01:43.609Z,7.22
2022-08-03T22:04:11.925Z,7.65
2022-08-03T22:06:59.058Z,7.47
2022-08-03T22:09:34.377Z,6.70
2022-08-03T22:12:02.235Z,6.40
2022-08-03T22:14:30.188Z,6.60
2022-08-03T22:16:58.023Z,6.60
2022-08-03T22:19:26.627Z,6.82
2022-08-03T22:21:56.824Z,6.90
2022-08-03T22:24:24.662Z,6.95
2022-08-03T22:27:11.021Z,6.90
2022-08-03T22:29:38.760Z,7.35
2022-08-03T22:32:07.212Z,6.75
2022-08-03T22:34:35.885Z,6.95
2022-08-03T22:37:05.224Z,7.68
2022-08-03T22:39:33.167Z,7.13
2022-08-03T22:42:01.777Z,7.55
2022-08-03T22:44:30.212Z,7.50
2022-08-03T22:46:57.965Z,7.30
2022-08-03T22:49:25.670Z,6.80
2022-08-03T22:51:53.404Z,7.10
2022-08-03T22:54:21.093Z,7.50
2022-08-03T22:56:48.795Z,7.82
2022-08-03T22:59:40.048Z,7.88
2022-08-03T23:02:20.339Z,7.05
2022-08-03T23:04:53.352Z,7.30
2022-08-03T23:07:23.103Z,7.47
2022-08-03T23:09:51.030Z,8.45
2022-08-03T23:12:20.173Z,9.03
2022-08-03T23:14:49.673Z,9.38
2022-08-03T23:17:17.559Z,9.52
2022-08-03T23:19:50.230Z,9.27
2022-08-03T23:22:30.559Z,9.80
2022-08-03T23:24:59.311Z,9.25
2022-08-03T23:27:27.759Z,8.18
2022-08-03T23:29:55.523Z,8.90
2022-08-03T23:32:23.209Z,8.95
2022-08-03T23:35:09.302Z,9.48
2022-08-03T23:38:04.620Z,10.43
2022-08-03T23:40:25.575Z,10.05
2022-08-03T23:42:53.353Z,10.20
2022-08-03T23:45:21.378Z,9.65
2022-08-03T23:47:50.499Z,9.57
2022-08-03T23:50:18.322Z,10.15
2022-08-03T23:53:08.533Z,9.93
2022-08-03T23:55:53.333Z,9.73
2022-08-03T23:58:47.455Z,10.15
